sensor_id;sensor_type;location;lat;lon;timestamp;temperature;humidity
44775;DHT22;31340;51.402;0.016;2023-01-29T00:02:23;7.90;99.90
44775;DHT22;31340;51.402;0.016;2023-01-29T00:04:51;7.90;99.90
44775;DHT22;31340;51.402;0.016;2023-01-29T00:07:19;7.90;99.90
44775;DHT22;31340;51.402;0.016;2023-01-29T00:09:47;7.90;99.90
44775;DHT22;31340;51.402;0.016;2023-01-29T00:12:14;7.90;99.90
44775;DHT22;31340;51.402;0.016;2023-01-29T00:14:42;7.90;99.90
44775;DHT22;31340;51.402;0.016;2023-01-29T00:17:09;7.90;99.90
44775;DHT22;31340;51.402;0.016;2023-01-29T00:19:37;7.90;99.90
44775;DHT22;31340;51.402;0.016;2023-01-29T00:22:05;7.80;99.90
44775;DHT22;31340;51.402;0.016;2023-01-29T00:24:32;7.80;99.90
44775;DHT22;31340;51.402;0.016;2023-01-29T00:27:00;7.90;99.90
44775;DHT22;31340;51.402;0.016;2023-01-29T00:29:28;7.80;99.90
44775;DHT22;31340;51.402;0.016;2023-01-29T00:31:55;7.80;99.90
44775;DHT22;31340;51.402;0.016;2023-01-29T00:34:23;7.80;99.90
44775;DHT22;31340;51.402;0.016;2023-01-29T00:36:50;7.80;99.90
44775;DHT22;31340;51.402;0.016;2023-01-29T00:39:18;7.80;99.90
44775;DHT22;31340;51.402;0.016;2023-01-29T00:42:02;7.80;99.90
44775;DHT22;31340;51.402;0.016;2023-01-29T00:44:48;7.80;99.90
44775;DHT22;31340;51.402;0.016;2023-01-29T00:47:24;8.40;99.90
44775;DHT22;31340;51.402;0.016;2023-01-29T00:50:04;7.80;99.90
44775;DHT22;31340;51.402;0.016;2023-01-29T00:52:32;7.80;99.90
44775;DHT22;31340;51.402;0.016;2023-01-29T00:55:03;7.80;99.90
44775;DHT22;31340;51.402;0.016;2023-01-29T00:57:32;7.80;99.90
44775;DHT22;31340;51.402;0.016;2023-01-29T01:00:01;7.80;99.90
44775;DHT22;31340;51.402;0.016;2023-01-29T01:02:31;7.80;99.90
44775;DHT22;31340;51.402;0.016;2023-01-29T01:05:18;7.80;99.90
44775;DHT22;31340;51.402;0.016;2023-01-29T01:07:47;7.80;99.90
44775;DHT22;31340;51.402;0.016;2023-01-29T01:10:19;7.80;99.90
44775;DHT22;31340;51.402;0.016;2023-01-29T01:12:57;7.80;99.90
44775;DHT22;31340;51.402;0.016;2023-01-29T01:15:36;7.80;99.90
44775;DHT22;31340;51.402;0.016;2023-01-29T01:18:04;7.70;99.90
44775;DHT22;31340;51.402;0.016;2023-01-29T01:20:34;7.70;99.90
44775;DHT22;31340;51.402;0.016;2023-01-29T01:23:02;7.70;99.90
44775;DHT22;31340;51.402;0.016;2023-01-29T01:25:30;7.70;99.90
44775;DHT22;31340;51.402;0.016;2023-01-29T01:27:58;7.70;99.90
44775;DHT22;31340;51.402;0.016;2023-01-29T01:30:26;7.70;99.90
44775;DHT22;31340;51.402;0.016;2023-01-29T01:32:54;7.60;99.90
44775;DHT22;31340;51.402;0.016;2023-01-29T01:35:22;7.70;99.90
44775;DHT22;31340;51.402;0.016;2023-01-29T01:37:50;7.70;99.90
44775;DHT22;31340;51.402;0.016;2023-01-29T01:40:20;7.60;99.90
44775;DHT22;31340;51.402;0.016;2023-01-29T01:42:51;7.60;99.90
44775;DHT22;31340;51.402;0.016;2023-01-29T01:45:31;8.10;99.90
44775;DHT22;31340;51.402;0.016;2023-01-29T01:48:26;7.60;99.90
44775;DHT22;31340;51.402;0.016;2023-01-29T01:50:58;7.50;99.90
44775;DHT22;31340;51.402;0.016;2023-01-29T01:53:40;7.50;99.90
44775;DHT22;31340;51.402;0.016;2023-01-29T01:56:14;7.50;99.90
44775;DHT22;31340;51.402;0.016;2023-01-29T01:58:46;7.50;99.90
44775;DHT22;31340;51.402;0.016;2023-01-29T02:01:17;7.50;99.90
44775;DHT22;31340;51.402;0.016;2023-01-29T02:03:59;7.50;99.90
44775;DHT22;31340;51.402;0.016;2023-01-29T02:06:46;7.50;99.90
44775;DHT22;31340;51.402;0.016;2023-01-29T02:09:43;7.50;99.90
44775;DHT22;31340;51.402;0.016;2023-01-29T02:12:14;7.40;99.90
44775;DHT22;31340;51.402;0.016;2023-01-29T02:14:42;7.40;99.90
44775;DHT22;31340;51.402;0.016;2023-01-29T02:17:16;7.40;99.90
44775;DHT22;31340;51.402;0.016;2023-01-29T02:30:49;7.40;99.90
44775;DHT22;31340;51.402;0.016;2023-01-29T02:41:40;7.40;99.90
44775;DHT22;31340;51.402;0.016;2023-01-29T02:47:55;7.40;99.90
44775;DHT22;31340;51.402;0.016;2023-01-29T02:50:38;7.50;99.90
44775;DHT22;31340;51.402;0.016;2023-01-29T02:53:15;7.40;99.90
44775;DHT22;31340;51.402;0.016;2023-01-29T02:56:08;7.40;99.90
44775;DHT22;31340;51.402;0.016;2023-01-29T02:58:46;7.40;99.90
44775;DHT22;31340;51.402;0.016;2023-01-29T03:03:52;7.40;99.90
44775;DHT22;31340;51.402;0.016;2023-01-29T03:06:50;7.40;99.90
44775;DHT22;31340;51.402;0.016;2023-01-29T03:09:25;7.50;99.90
44775;DHT22;31340;51.402;0.016;2023-01-29T03:11:59;7.40;99.90
44775;DHT22;31340;51.402;0.016;2023-01-29T03:14:36;7.50;99.90
44775;DHT22;31340;51.402;0.016;2023-01-29T03:17:27;7.50;99.90
44775;DHT22;31340;51.402;0.016;2023-01-29T03:19:58;7.50;99.90
44775;DHT22;31340;51.402;0.016;2023-01-29T03:22:27;7.50;99.90
44775;DHT22;31340;51.402;0.016;2023-01-29T03:24:57;7.50;99.90
44775;DHT22;31340;51.402;0.016;2023-01-29T03:27:47;7.50;99.90
44775;DHT22;31340;51.402;0.016;2023-01-29T03:31:01;7.50;99.90
44775;DHT22;31340;51.402;0.016;2023-01-29T03:34:22;7.50;99.90
44775;DHT22;31340;51.402;0.016;2023-01-29T03:36:57;7.50;99.90
44775;DHT22;31340;51.402;0.016;2023-01-29T03:39:27;7.50;99.90
44775;DHT22;31340;51.402;0.016;2023-01-29T03:45:13;7.60;99.90
44775;DHT22;31340;51.402;0.016;2023-01-29T03:56:08;7.50;99.90
44775;DHT22;31340;51.402;0.016;2023-01-29T03:58:55;7.50;99.90
44775;DHT22;31340;51.402;0.016;2023-01-29T04:01:41;7.50;99.90
44775;DHT22;31340;51.402;0.016;2023-01-29T04:04:16;7.50;99.90
44775;DHT22;31340;51.402;0.016;2023-01-29T04:06:48;7.50;99.90
44775;DHT22;31340;51.402;0.016;2023-01-29T04:09:20;7.50;99.90
44775;DHT22;31340;51.402;0.016;2023-01-29T04:12:04;7.50;99.90
44775;DHT22;31340;51.402;0.016;2023-01-29T04:14:38;7.50;99.90
44775;DHT22;31340;51.402;0.016;2023-01-29T04:17:15;7.50;99.90
44775;DHT22;31340;51.402;0.016;2023-01-29T04:19:54;7.50;99.90
44775;DHT22;31340;51.402;0.016;2023-01-29T04:22:27;7.50;99.90
44775;DHT22;31340;51.402;0.016;2023-01-29T04:24:58;7.50;99.90
44775;DHT22;31340;51.402;0.016;2023-01-29T04:30:28;7.50;99.90
44775;DHT22;31340;51.402;0.016;2023-01-29T04:41:16;7.50;99.90
44775;DHT22;31340;51.402;0.016;2023-01-29T04:52:15;7.50;99.90
44775;DHT22;31340;51.402;0.016;2023-01-29T04:54:52;7.50;99.90
44775;DHT22;31340;51.402;0.016;2023-01-29T05:00:06;7.50;99.90
44775;DHT22;31340;51.402;0.016;2023-01-29T05:02:36;7.50;99.90
44775;DHT22;31340;51.402;0.016;2023-01-29T05:05:05;7.50;99.90
44775;DHT22;31340;51.402;0.016;2023-01-29T05:07:36;7.40;99.90
44775;DHT22;31340;51.402;0.016;2023-01-29T05:10:06;7.40;99.90
44775;DHT22;31340;51.402;0.016;2023-01-29T05:12:36;7.50;99.90
44775;DHT22;31340;51.402;0.016;2023-01-29T05:15:09;7.40;99.90
44775;DHT22;31340;51.402;0.016;2023-01-29T05:17:38;7.50;99.90
44775;DHT22;31340;51.402;0.016;2023-01-29T05:20:07;7.50;99.90
44775;DHT22;31340;51.402;0.016;2023-01-29T05:22:38;7.50;99.90
44775;DHT22;31340;51.402;0.016;2023-01-29T05:25:31;7.50;99.90
44775;DHT22;31340;51.402;0.016;2023-01-29T05:27:59;7.50;99.90
44775;DHT22;31340;51.402;0.016;2023-01-29T05:30:35;7.50;99.90
44775;DHT22;31340;51.402;0.016;2023-01-29T05:33:04;7.40;99.90
44775;DHT22;31340;51.402;0.016;2023-01-29T05:35:36;7.50;99.90
44775;DHT22;31340;51.402;0.016;2023-01-29T05:38:04;7.80;99.90
44775;DHT22;31340;51.402;0.016;2023-01-29T05:40:32;7.40;99.90
44775;DHT22;31340;51.402;0.016;2023-01-29T05:42:59;7.40;99.90
44775;DHT22;31340;51.402;0.016;2023-01-29T05:45:27;7.40;99.90
44775;DHT22;31340;51.402;0.016;2023-01-29T05:47:59;7.50;99.90
44775;DHT22;31340;51.402;0.016;2023-01-29T05:50:26;7.50;99.90
44775;DHT22;31340;51.402;0.016;2023-01-29T05:52:57;7.40;99.90
44775;DHT22;31340;51.402;0.016;2023-01-29T05:55:26;7.50;99.90
44775;DHT22;31340;51.402;0.016;2023-01-29T05:57:56;7.40;99.90
44775;DHT22;31340;51.402;0.016;2023-01-29T06:00:24;7.40;99.90
44775;DHT22;31340;51.402;0.016;2023-01-29T06:02:52;7.50;99.90
44775;DHT22;31340;51.402;0.016;2023-01-29T06:05:20;7.40;99.90
44775;DHT22;31340;51.402;0.016;2023-01-29T06:07:47;7.40;99.90
44775;DHT22;31340;51.402;0.016;2023-01-29T06:10:17;7.40;99.90
44775;DHT22;31340;51.402;0.016;2023-01-29T06:12:45;7.40;99.90
44775;DHT22;31340;51.402;0.016;2023-01-29T06:15:14;7.40;99.90
44775;DHT22;31340;51.402;0.016;2023-01-29T06:17:45;7.40;99.90
44775;DHT22;31340;51.402;0.016;2023-01-29T06:20:13;7.50;99.90
44775;DHT22;31340;51.402;0.016;2023-01-29T06:22:41;7.40;99.90
44775;DHT22;31340;51.402;0.016;2023-01-29T06:25:09;7.40;99.90
44775;DHT22;31340;51.402;0.016;2023-01-29T06:27:36;7.40;99.90
44775;DHT22;31340;51.402;0.016;2023-01-29T06:30:05;7.40;99.90
44775;DHT22;31340;51.402;0.016;2023-01-29T06:32:33;7.40;99.90
44775;DHT22;31340;51.402;0.016;2023-01-29T06:35:00;7.40;99.90
44775;DHT22;31340;51.402;0.016;2023-01-29T06:37:28;7.40;99.90
44775;DHT22;31340;51.402;0.016;2023-01-29T06:39:55;7.50;99.90
44775;DHT22;31340;51.402;0.016;2023-01-29T06:42:23;7.50;99.90
44775;DHT22;31340;51.402;0.016;2023-01-29T06:44:54;7.40;99.90
44775;DHT22;31340;51.402;0.016;2023-01-29T06:47:23;7.50;99.90
44775;DHT22;31340;51.402;0.016;2023-01-29T06:49:52;7.40;99.90
44775;DHT22;31340;51.402;0.016;2023-01-29T06:52:19;7.50;99.90
44775;DHT22;31340;51.402;0.016;2023-01-29T06:54:46;7.50;99.90
44775;DHT22;31340;51.402;0.016;2023-01-29T06:57:14;7.50;99.90
44775;DHT22;31340;51.402;0.016;2023-01-29T06:59:42;7.50;99.90
44775;DHT22;31340;51.402;0.016;2023-01-29T07:02:10;7.50;99.90
44775;DHT22;31340;51.402;0.016;2023-01-29T07:04:38;7.50;99.90
44775;DHT22;31340;51.402;0.016;2023-01-29T07:07:07;7.50;99.90
44775;DHT22;31340;51.402;0.016;2023-01-29T07:09:40;7.50;99.90
44775;DHT22;31340;51.402;0.016;2023-01-29T07:12:09;7.50;99.90
44775;DHT22;31340;51.402;0.016;2023-01-29T07:14:37;7.40;99.90
44775;DHT22;31340;51.402;0.016;2023-01-29T07:17:04;7.50;99.90
44775;DHT22;31340;51.402;0.016;2023-01-29T07:19:33;7.50;99.90
44775;DHT22;31340;51.402;0.016;2023-01-29T07:22:00;7.40;99.90
44775;DHT22;31340;51.402;0.016;2023-01-29T07:24:29;7.50;99.90
44775;DHT22;31340;51.402;0.016;2023-01-29T07:26:57;7.50;99.90
44775;DHT22;31340;51.402;0.016;2023-01-29T07:29:25;7.50;99.90
44775;DHT22;31340;51.402;0.016;2023-01-29T07:31:52;7.40;99.90
44775;DHT22;31340;51.402;0.016;2023-01-29T07:34:20;7.40;99.90
44775;DHT22;31340;51.402;0.016;2023-01-29T07:36:48;7.50;99.90
44775;DHT22;31340;51.402;0.016;2023-01-29T07:39:15;7.40;99.90
44775;DHT22;31340;51.402;0.016;2023-01-29T07:41:43;7.40;99.90
44775;DHT22;31340;51.402;0.016;2023-01-29T07:44:15;7.40;99.90
44775;DHT22;31340;51.402;0.016;2023-01-29T07:46:43;7.40;99.90
44775;DHT22;31340;51.402;0.016;2023-01-29T07:49:11;7.40;99.90
44775;DHT22;31340;51.402;0.016;2023-01-29T07:51:38;7.40;99.90
44775;DHT22;31340;51.402;0.016;2023-01-29T07:54:05;7.40;99.90
44775;DHT22;31340;51.402;0.016;2023-01-29T07:56:33;7.40;99.90
44775;DHT22;31340;51.402;0.016;2023-01-29T07:59:01;7.30;99.90
44775;DHT22;31340;51.402;0.016;2023-01-29T08:01:28;7.30;99.90
44775;DHT22;31340;51.402;0.016;2023-01-29T08:03:56;7.30;99.90
44775;DHT22;31340;51.402;0.016;2023-01-29T08:06:23;7.30;99.90
44775;DHT22;31340;51.402;0.016;2023-01-29T08:08:51;7.30;99.90
44775;DHT22;31340;51.402;0.016;2023-01-29T08:11:19;7.30;99.90
44775;DHT22;31340;51.402;0.016;2023-01-29T08:13:46;7.30;99.90
44775;DHT22;31340;51.402;0.016;2023-01-29T08:16:14;7.30;99.90
44775;DHT22;31340;51.402;0.016;2023-01-29T08:18:42;7.30;99.90
44775;DHT22;31340;51.402;0.016;2023-01-29T08:21:12;7.30;99.90
44775;DHT22;31340;51.402;0.016;2023-01-29T08:23:40;7.30;99.90
44775;DHT22;31340;51.402;0.016;2023-01-29T08:26:08;7.30;99.90
44775;DHT22;31340;51.402;0.016;2023-01-29T08:28:35;7.20;99.90
44775;DHT22;31340;51.402;0.016;2023-01-29T08:31:15;7.30;99.90
44775;DHT22;31340;51.402;0.016;2023-01-29T08:33:43;7.30;99.90
44775;DHT22;31340;51.402;0.016;2023-01-29T08:36:11;7.30;99.90
44775;DHT22;31340;51.402;0.016;2023-01-29T08:38:38;7.30;99.90
44775;DHT22;31340;51.402;0.016;2023-01-29T08:41:06;7.30;99.90
44775;DHT22;31340;51.402;0.016;2023-01-29T08:43:34;7.30;99.90
44775;DHT22;31340;51.402;0.016;2023-01-29T08:46:05;7.30;99.90
44775;DHT22;31340;51.402;0.016;2023-01-29T08:48:34;7.30;99.90
44775;DHT22;31340;51.402;0.016;2023-01-29T08:51:02;7.40;99.90
44775;DHT22;31340;51.402;0.016;2023-01-29T08:53:31;7.40;99.90
44775;DHT22;31340;51.402;0.016;2023-01-29T08:55:59;7.50;99.90
44775;DHT22;31340;51.402;0.016;2023-01-29T08:58:27;7.50;99.90
44775;DHT22;31340;51.402;0.016;2023-01-29T09:00:54;7.50;99.90
44775;DHT22;31340;51.402;0.016;2023-01-29T09:03:22;7.50;99.90
44775;DHT22;31340;51.402;0.016;2023-01-29T09:05:50;7.60;99.90
44775;DHT22;31340;51.402;0.016;2023-01-29T09:08:17;7.60;99.90
44775;DHT22;31340;51.402;0.016;2023-01-29T09:10:45;7.60;99.90
44775;DHT22;31340;51.402;0.016;2023-01-29T09:13:12;7.70;99.90
44775;DHT22;31340;51.402;0.016;2023-01-29T09:15:40;7.70;99.90
44775;DHT22;31340;51.402;0.016;2023-01-29T09:18:08;7.70;99.90
44775;DHT22;31340;51.402;0.016;2023-01-29T09:20:35;7.80;99.90
44775;DHT22;31340;51.402;0.016;2023-01-29T09:23:06;7.80;99.90
44775;DHT22;31340;51.402;0.016;2023-01-29T09:25:35;7.80;99.90
44775;DHT22;31340;51.402;0.016;2023-01-29T09:28:03;7.90;99.90
44775;DHT22;31340;51.402;0.016;2023-01-29T09:30:30;7.90;99.90
44775;DHT22;31340;51.402;0.016;2023-01-29T09:33:00;7.90;99.90
44775;DHT22;31340;51.402;0.016;2023-01-29T09:35:29;7.90;99.90
44775;DHT22;31340;51.402;0.016;2023-01-29T09:37:57;8.00;99.90
44775;DHT22;31340;51.402;0.016;2023-01-29T09:40:54;8.00;99.90
44775;DHT22;31340;51.402;0.016;2023-01-29T09:43:44;8.00;99.90
44775;DHT22;31340;51.402;0.016;2023-01-29T09:46:19;8.10;99.90
44775;DHT22;31340;51.402;0.016;2023-01-29T09:49:03;8.10;99.90
44775;DHT22;31340;51.402;0.016;2023-01-29T09:51:39;8.10;99.90
44775;DHT22;31340;51.402;0.016;2023-01-29T09:54:29;8.10;99.90
44775;DHT22;31340;51.402;0.016;2023-01-29T09:56:59;8.20;99.90
44775;DHT22;31340;51.402;0.016;2023-01-29T09:59:29;8.20;99.90
44775;DHT22;31340;51.402;0.016;2023-01-29T10:02:05;8.20;99.90
44775;DHT22;31340;51.402;0.016;2023-01-29T10:13:05;8.30;99.90
44775;DHT22;31340;51.402;0.016;2023-01-29T10:24:15;8.40;99.90
44775;DHT22;31340;51.402;0.016;2023-01-29T10:26:44;8.30;99.90
44775;DHT22;31340;51.402;0.016;2023-01-29T10:29:17;8.40;99.90
44775;DHT22;31340;51.402;0.016;2023-01-29T10:31:51;8.40;99.90
44775;DHT22;31340;51.402;0.016;2023-01-29T10:34:32;8.50;99.90
44775;DHT22;31340;51.402;0.016;2023-01-29T10:37:15;8.50;99.90
44775;DHT22;31340;51.402;0.016;2023-01-29T10:39:43;8.60;99.90
44775;DHT22;31340;51.402;0.016;2023-01-29T10:45:22;8.60;99.90
44775;DHT22;31340;51.402;0.016;2023-01-29T10:50:49;8.70;99.90
44775;DHT22;31340;51.402;0.016;2023-01-29T10:53:26;8.70;99.90
44775;DHT22;31340;51.402;0.016;2023-01-29T10:58:53;8.80;99.90
44775;DHT22;31340;51.402;0.016;2023-01-29T11:01:22;8.80;99.90
44775;DHT22;31340;51.402;0.016;2023-01-29T11:03:57;8.80;99.90
44775;DHT22;31340;51.402;0.016;2023-01-29T11:12:18;8.90;99.90
44775;DHT22;31340;51.402;0.016;2023-01-29T11:14:54;8.90;99.90
44775;DHT22;31340;51.402;0.016;2023-01-29T11:17:24;8.90;99.90
44775;DHT22;31340;51.402;0.016;2023-01-29T11:19:53;8.90;99.90
44775;DHT22;31340;51.402;0.016;2023-01-29T11:22:26;8.90;99.90
44775;DHT22;31340;51.402;0.016;2023-01-29T11:25:16;8.90;99.90
44775;DHT22;31340;51.402;0.016;2023-01-29T11:27:54;8.90;99.90
44775;DHT22;31340;51.402;0.016;2023-01-29T11:30:34;8.90;99.90
44775;DHT22;31340;51.402;0.016;2023-01-29T11:33:10;8.90;99.90
44775;DHT22;31340;51.402;0.016;2023-01-29T11:35:44;8.90;99.90
44775;DHT22;31340;51.402;0.016;2023-01-29T11:40:43;8.90;99.90
44775;DHT22;31340;51.402;0.016;2023-01-29T11:45:46;9.00;99.90
44775;DHT22;31340;51.402;0.016;2023-01-29T11:48:16;9.00;99.90
44775;DHT22;31340;51.402;0.016;2023-01-29T11:50:54;9.00;99.90
44775;DHT22;31340;51.402;0.016;2023-01-29T11:55:53;9.00;99.90
44775;DHT22;31340;51.402;0.016;2023-01-29T11:58:28;9.00;99.90
44775;DHT22;31340;51.402;0.016;2023-01-29T12:00:57;9.00;99.90
44775;DHT22;31340;51.402;0.016;2023-01-29T12:03:48;9.00;99.90
44775;DHT22;31340;51.402;0.016;2023-01-29T12:06:22;9.10;99.90
44775;DHT22;31340;51.402;0.016;2023-01-29T12:08:55;9.10;99.90
44775;DHT22;31340;51.402;0.016;2023-01-29T12:11:34;9.10;99.90
44775;DHT22;31340;51.402;0.016;2023-01-29T12:14:04;9.10;99.90
44775;DHT22;31340;51.402;0.016;2023-01-29T12:25:42;9.10;99.90
44775;DHT22;31340;51.402;0.016;2023-01-29T12:28:41;9.10;99.90
44775;DHT22;31340;51.402;0.016;2023-01-29T12:31:21;9.10;99.90
44775;DHT22;31340;51.402;0.016;2023-01-29T12:33:56;9.10;99.90
44775;DHT22;31340;51.402;0.016;2023-01-29T12:39:19;9.10;99.90
44775;DHT22;31340;51.402;0.016;2023-01-29T12:41:58;9.10;99.90
44775;DHT22;31340;51.402;0.016;2023-01-29T12:44:34;9.20;99.90
44775;DHT22;31340;51.402;0.016;2023-01-29T12:47:05;9.20;99.90
44775;DHT22;31340;51.402;0.016;2023-01-29T12:49:36;9.20;99.90
44775;DHT22;31340;51.402;0.016;2023-01-29T12:54:44;9.40;99.90
44775;DHT22;31340;51.402;0.016;2023-01-29T13:00:17;9.50;99.90
44775;DHT22;31340;51.402;0.016;2023-01-29T13:05:43;9.60;99.90
44775;DHT22;31340;51.402;0.016;2023-01-29T13:10:55;9.70;99.90
44775;DHT22;31340;51.402;0.016;2023-01-29T13:13:31;9.80;99.90
44775;DHT22;31340;51.402;0.016;2023-01-29T13:16:03;9.80;99.90
44775;DHT22;31340;51.402;0.016;2023-01-29T13:21:27;9.90;99.90
44775;DHT22;31340;51.402;0.016;2023-01-29T13:24:01;9.90;99.90
44775;DHT22;31340;51.402;0.016;2023-01-29T13:26:30;9.90;99.90
44775;DHT22;31340;51.402;0.016;2023-01-29T13:28:58;9.90;99.90
44775;DHT22;31340;51.402;0.016;2023-01-29T13:31:34;9.90;99.90
44775;DHT22;31340;51.402;0.016;2023-01-29T13:34:14;10.00;99.90
44775;DHT22;31340;51.402;0.016;2023-01-29T13:36:50;10.00;99.90
44775;DHT22;31340;51.402;0.016;2023-01-29T13:39:39;10.00;99.90
44775;DHT22;31340;51.402;0.016;2023-01-29T13:42:19;10.00;99.90
44775;DHT22;31340;51.402;0.016;2023-01-29T13:44:55;10.10;99.90
44775;DHT22;31340;51.402;0.016;2023-01-29T13:47:37;10.10;99.90
44775;DHT22;31340;51.402;0.016;2023-01-29T13:50:33;10.10;99.90
44775;DHT22;31340;51.402;0.016;2023-01-29T13:53:05;10.10;99.90
44775;DHT22;31340;51.402;0.016;2023-01-29T13:55:37;10.20;99.90
44775;DHT22;31340;51.402;0.016;2023-01-29T13:58:12;10.20;99.90
44775;DHT22;31340;51.402;0.016;2023-01-29T14:05:41;10.20;99.90
44775;DHT22;31340;51.402;0.016;2023-01-29T14:10:43;10.10;99.90
44775;DHT22;31340;51.402;0.016;2023-01-29T14:16:25;10.10;99.90
44775;DHT22;31340;51.402;0.016;2023-01-29T14:18:34;10.10;99.90
44775;DHT22;31340;51.402;0.016;2023-01-29T14:21:18;10.10;99.90
44775;DHT22;31340;51.402;0.016;2023-01-29T14:23:51;10.10;99.90
44775;DHT22;31340;51.402;0.016;2023-01-29T14:31:46;10.10;99.90
44775;DHT22;31340;51.402;0.016;2023-01-29T14:34:16;10.00;99.90
44775;DHT22;31340;51.402;0.016;2023-01-29T14:36:46;10.00;99.90
44775;DHT22;31340;51.402;0.016;2023-01-29T14:39:41;10.10;99.90
44775;DHT22;31340;51.402;0.016;2023-01-29T14:42:35;10.10;99.90
44775;DHT22;31340;51.402;0.016;2023-01-29T14:53:19;10.20;99.90
44775;DHT22;31340;51.402;0.016;2023-01-29T14:56:02;10.20;99.90
44775;DHT22;31340;51.402;0.016;2023-01-29T15:01:34;10.20;99.90
44775;DHT22;31340;51.402;0.016;2023-01-29T15:04:16;10.20;99.90
44775;DHT22;31340;51.402;0.016;2023-01-29T15:07:01;10.20;99.90
44775;DHT22;31340;51.402;0.016;2023-01-29T15:09:38;10.30;99.90
44775;DHT22;31340;51.402;0.016;2023-01-29T15:13:02;10.30;99.90
44775;DHT22;31340;51.402;0.016;2023-01-29T15:18:03;10.30;99.90
44775;DHT22;31340;51.402;0.016;2023-01-29T15:20:36;10.30;99.90
44775;DHT22;31340;51.402;0.016;2023-01-29T15:23:30;10.30;99.90
44775;DHT22;31340;51.402;0.016;2023-01-29T15:26:03;10.30;99.90
44775;DHT22;31340;51.402;0.016;2023-01-29T15:28:33;10.30;99.90
44775;DHT22;31340;51.402;0.016;2023-01-29T15:31:07;10.30;99.90
44775;DHT22;31340;51.402;0.016;2023-01-29T15:33:43;10.40;99.90
44775;DHT22;31340;51.402;0.016;2023-01-29T15:36:30;10.30;99.90
44775;DHT22;31340;51.402;0.016;2023-01-29T15:41:38;10.30;99.90
44775;DHT22;31340;51.402;0.016;2023-01-29T15:44:20;10.30;99.90
44775;DHT22;31340;51.402;0.016;2023-01-29T15:46:53;10.30;99.90
44775;DHT22;31340;51.402;0.016;2023-01-29T15:49:32;10.30;99.90
44775;DHT22;31340;51.402;0.016;2023-01-29T15:52:15;10.30;99.90
44775;DHT22;31340;51.402;0.016;2023-01-29T15:54:43;10.30;99.90
44775;DHT22;31340;51.402;0.016;2023-01-29T15:57:19;10.30;99.90
44775;DHT22;31340;51.402;0.016;2023-01-29T15:59:48;10.30;99.90
44775;DHT22;31340;51.402;0.016;2023-01-29T16:02:41;10.20;99.90
44775;DHT22;31340;51.402;0.016;2023-01-29T16:05:20;10.30;99.90
44775;DHT22;31340;51.402;0.016;2023-01-29T16:07:50;10.20;99.90
44775;DHT22;31340;51.402;0.016;2023-01-29T16:10:20;10.20;99.90
44775;DHT22;31340;51.402;0.016;2023-01-29T16:12:49;10.20;99.90
44775;DHT22;31340;51.402;0.016;2023-01-29T16:15:32;10.30;99.90
44775;DHT22;31340;51.402;0.016;2023-01-29T16:18:01;10.30;99.90
44775;DHT22;31340;51.402;0.016;2023-01-29T16:20:39;10.30;99.90
44775;DHT22;31340;51.402;0.016;2023-01-29T16:23:19;10.20;99.90
44775;DHT22;31340;51.402;0.016;2023-01-29T16:25:48;10.20;99.90
44775;DHT22;31340;51.402;0.016;2023-01-29T16:28:16;10.20;99.90
44775;DHT22;31340;51.402;0.016;2023-01-29T16:30:44;10.20;99.90
44775;DHT22;31340;51.402;0.016;2023-01-29T16:33:14;10.20;99.90
44775;DHT22;31340;51.402;0.016;2023-01-29T16:35:50;10.20;99.90
44775;DHT22;31340;51.402;0.016;2023-01-29T16:38:37;10.20;99.90
44775;DHT22;31340;51.402;0.016;2023-01-29T16:41:28;10.20;99.90
44775;DHT22;31340;51.402;0.016;2023-01-29T16:44:02;10.20;99.90
44775;DHT22;31340;51.402;0.016;2023-01-29T16:46:44;10.20;99.90
44775;DHT22;31340;51.402;0.016;2023-01-29T16:51:55;10.20;99.90
44775;DHT22;31340;51.402;0.016;2023-01-29T16:54:26;10.10;99.90
44775;DHT22;31340;51.402;0.016;2023-01-29T16:56:56;10.10;99.90
44775;DHT22;31340;51.402;0.016;2023-01-29T16:59:32;10.10;99.90
44775;DHT22;31340;51.402;0.016;2023-01-29T17:02:02;10.10;99.90
44775;DHT22;31340;51.402;0.016;2023-01-29T17:04:29;10.10;99.90
44775;DHT22;31340;51.402;0.016;2023-01-29T17:06:59;10.10;99.90
44775;DHT22;31340;51.402;0.016;2023-01-29T17:09:33;10.10;99.90
44775;DHT22;31340;51.402;0.016;2023-01-29T17:12:04;10.10;99.90
44775;DHT22;31340;51.402;0.016;2023-01-29T17:14:34;10.10;99.90
44775;DHT22;31340;51.402;0.016;2023-01-29T17:17:15;10.10;99.90
44775;DHT22;31340;51.402;0.016;2023-01-29T17:19:44;10.10;99.90
44775;DHT22;31340;51.402;0.016;2023-01-29T17:22:13;10.00;99.90
44775;DHT22;31340;51.402;0.016;2023-01-29T17:24:41;10.00;99.90
44775;DHT22;31340;51.402;0.016;2023-01-29T17:27:21;10.00;99.90
44775;DHT22;31340;51.402;0.016;2023-01-29T17:29:49;10.00;99.90
44775;DHT22;31340;51.402;0.016;2023-01-29T17:32:18;10.00;99.90
44775;DHT22;31340;51.402;0.016;2023-01-29T17:34:46;10.00;99.90
44775;DHT22;31340;51.402;0.016;2023-01-29T17:37:14;9.90;99.90
44775;DHT22;31340;51.402;0.016;2023-01-29T17:39:43;9.90;99.90
44775;DHT22;31340;51.402;0.016;2023-01-29T17:42:13;9.90;99.90
44775;DHT22;31340;51.402;0.016;2023-01-29T17:44:41;9.90;99.90
44775;DHT22;31340;51.402;0.016;2023-01-29T17:47:12;9.90;99.90
44775;DHT22;31340;51.402;0.016;2023-01-29T17:49:41;9.90;99.90
44775;DHT22;31340;51.402;0.016;2023-01-29T17:52:08;9.90;99.90
44775;DHT22;31340;51.402;0.016;2023-01-29T17:54:36;9.90;99.90
44775;DHT22;31340;51.402;0.016;2023-01-29T17:57:04;9.90;99.90
44775;DHT22;31340;51.402;0.016;2023-01-29T17:59:32;9.90;99.90
44775;DHT22;31340;51.402;0.016;2023-01-29T18:01:59;9.90;99.90
44775;DHT22;31340;51.402;0.016;2023-01-29T18:04:27;9.90;99.90
44775;DHT22;31340;51.402;0.016;2023-01-29T18:06:55;9.90;99.90
44775;DHT22;31340;51.402;0.016;2023-01-29T18:09:24;9.90;99.90
44775;DHT22;31340;51.402;0.016;2023-01-29T18:11:51;9.90;99.90
44775;DHT22;31340;51.402;0.016;2023-01-29T18:14:20;9.90;99.90
44775;DHT22;31340;51.402;0.016;2023-01-29T18:16:47;9.90;99.90
44775;DHT22;31340;51.402;0.016;2023-01-29T18:19:23;9.90;99.90
44775;DHT22;31340;51.402;0.016;2023-01-29T18:21:54;9.80;99.90
44775;DHT22;31340;51.402;0.016;2023-01-29T18:24:21;9.90;99.90
44775;DHT22;31340;51.402;0.016;2023-01-29T18:26:49;9.80;99.90
44775;DHT22;31340;51.402;0.016;2023-01-29T18:29:17;9.80;99.90
44775;DHT22;31340;51.402;0.016;2023-01-29T18:31:47;9.80;99.90
44775;DHT22;31340;51.402;0.016;2023-01-29T18:34:15;9.80;99.90
44775;DHT22;31340;51.402;0.016;2023-01-29T18:36:43;9.80;99.90
44775;DHT22;31340;51.402;0.016;2023-01-29T18:39:14;9.80;99.90
44775;DHT22;31340;51.402;0.016;2023-01-29T18:41:42;9.80;99.90
44775;DHT22;31340;51.402;0.016;2023-01-29T18:44:10;9.70;99.90
44775;DHT22;31340;51.402;0.016;2023-01-29T18:46:37;9.70;99.90
44775;DHT22;31340;51.402;0.016;2023-01-29T18:49:05;9.80;99.90
44775;DHT22;31340;51.402;0.016;2023-01-29T18:51:32;9.70;99.90
44775;DHT22;31340;51.402;0.016;2023-01-29T18:54:00;9.80;99.90
44775;DHT22;31340;51.402;0.016;2023-01-29T18:56:27;9.70;99.90
44775;DHT22;31340;51.402;0.016;2023-01-29T18:58:55;9.70;99.90